createdAt,value
2023-01-01T00:00:38.557Z,59.89
2023-01-01T00:03:06.497Z,59.38
2023-01-01T00:05:33.042Z,60.93
2023-01-01T00:08:04.660Z,61.43
2023-01-01T00:10:32.167Z,61.89
2023-01-01T00:12:59.055Z,61.69
2023-01-01T00:15:26.098Z,61.81
2023-01-01T00:17:52.999Z,61.65
2023-01-01T00:20:19.912Z,61.31
2023-01-01T00:22:55.450Z,61.26
2023-01-01T00:25:22.955Z,60.68
2023-01-01T00:27:51.718Z,60.67
2023-01-01T00:30:18.376Z,60.70
2023-01-01T00:32:55.284Z,60.44
2023-01-01T00:35:25.885Z,60.15
2023-01-01T00:37:52.639Z,59.75
2023-01-01T00:40:19.170Z,59.69
2023-01-01T00:42:45.854Z,59.07
2023-01-01T00:45:18.815Z,58.58
2023-01-01T00:47:47.921Z,58.74
2023-01-01T00:50:14.530Z,59.89
2023-01-01T00:52:41.114Z,59.34
2023-01-01T00:55:07.894Z,59.42
2023-01-01T00:57:35.215Z,59.60
2023-01-01T01:00:01.811Z,59.21
2023-01-01T01:02:28.485Z,59.50
2023-01-01T01:04:55.161Z,59.41
2023-01-01T01:07:21.943Z,58.59
2023-01-01T01:09:48.462Z,58.33
2023-01-01T01:12:17.824Z,58.20
2023-01-01T01:14:45.875Z,57.97
2023-01-01T01:17:12.440Z,58.06
2023-01-01T01:19:39.051Z,58.18
2023-01-01T01:22:05.595Z,58.06
2023-01-01T01:24:32.348Z,57.72
2023-01-01T01:26:58.921Z,57.78
2023-01-01T01:29:25.521Z,57.78
2023-01-01T01:31:52.069Z,57.75
2023-01-01T01:34:22.547Z,57.95
2023-01-01T01:36:53.246Z,58.16
2023-01-01T01:39:20.086Z,58.53
2023-01-01T01:41:46.816Z,58.84
2023-01-01T01:44:32.185Z,58.53
2023-01-01T01:47:00.011Z,58.70
2023-01-01T01:49:32.154Z,58.49
2023-01-01T01:52:00.274Z,58.75
2023-01-01T01:54:27.791Z,59.43
2023-01-01T01:57:06.137Z,58.94
2023-01-01T01:59:34.759Z,58.49
2023-01-01T02:02:01.830Z,58.94
2023-01-01T02:04:28.795Z,59.23
2023-01-01T02:06:55.782Z,59.81
2023-01-01T02:09:22.500Z,59.17
2023-01-01T02:11:49.212Z,60.00
2023-01-01T02:14:15.995Z,58.94
2023-01-01T02:16:46.383Z,58.81
2023-01-01T02:19:31.893Z,58.85
2023-01-01T02:22:14.408Z,58.76
2023-01-01T02:24:59.933Z,58.66
2023-01-01T02:27:40.516Z,58.46
2023-01-01T02:30:08.669Z,59.42
2023-01-01T02:32:37.547Z,59.52
2023-01-01T02:35:30.895Z,59.36
2023-01-01T02:37:59.682Z,59.26
2023-01-01T02:40:27.845Z,59.16
2023-01-01T02:42:56.423Z,59.94
2023-01-01T02:45:23.044Z,59.89
2023-01-01T02:47:49.850Z,59.88
2023-01-01T02:50:22.009Z,60.08
2023-01-01T02:52:57.566Z,61.11
2023-01-01T02:55:27.765Z,60.59
2023-01-01T02:58:21.901Z,59.86
2023-01-01T03:00:48.634Z,59.78
2023-01-01T03:03:33.819Z,59.39
2023-01-01T03:06:27.198Z,59.67
2023-01-01T03:09:03.336Z,59.42
2023-01-01T03:11:37.540Z,59.64
2023-01-01T03:14:08.281Z,59.58
2023-01-01T03:16:39.484Z,59.80
2023-01-01T03:19:11.932Z,59.80
2023-01-01T03:21:42.039Z,59.73
2023-01-01T03:24:12.514Z,59.34
2023-01-01T03:26:40.568Z,59.46
2023-01-01T03:29:10.241Z,59.45
2023-01-01T03:31:38.209Z,59.48
2023-01-01T03:34:11.389Z,59.60
2023-01-01T03:36:39.258Z,59.57
2023-01-01T03:39:11.293Z,59.60
2023-01-01T03:41:46.593Z,59.62
2023-01-01T03:44:18.601Z,59.69
2023-01-01T03:46:45.697Z,59.41
2023-01-01T03:49:13.160Z,59.55
2023-01-01T03:51:51.029Z,59.16
2023-01-01T03:54:29.649Z,58.76
2023-01-01T03:57:03.329Z,58.95
2023-01-01T03:59:35.167Z,58.87
2023-01-01T04:02:04.243Z,59.17
2023-01-01T04:04:31.724Z,59.91
2023-01-01T04:07:02.053Z,59.56
2023-01-01T04:09:37.266Z,60.17
2023-01-01T04:12:04.743Z,59.45
2023-01-01T04:14:36.054Z,59.71
2023-01-01T04:17:03.633Z,59.13
2023-01-01T04:19:30.495Z,59.35
2023-01-01T04:21:57.420Z,58.91
2023-01-01T04:24:24.111Z,58.88
2023-01-01T04:26:51.604Z,58.87
2023-01-01T04:29:18.255Z,58.80
2023-01-01T04:31:44.918Z,58.84
2023-01-01T04:34:11.621Z,58.85
2023-01-01T04:36:38.648Z,58.44
2023-01-01T04:39:05.717Z,58.68
2023-01-01T04:41:32.398Z,58.24
2023-01-01T04:43:59.349Z,58.23
2023-01-01T04:46:26.024Z,58.65
2023-01-01T04:48:52.593Z,58.72
2023-01-01T04:51:20.990Z,58.80
2023-01-01T04:53:47.654Z,58.77
2023-01-01T04:56:15.435Z,58.63
2023-01-01T04:58:42.478Z,58.90
2023-01-01T05:01:14.290Z,59.08
2023-01-01T05:03:40.925Z,59.33
2023-01-01T05:06:08.564Z,59.43
2023-01-01T05:08:36.153Z,59.94
2023-01-01T05:11:03.388Z,60.23
2023-01-01T05:13:29.999Z,60.41
2023-01-01T05:15:56.611Z,60.31
2023-01-01T05:18:23.266Z,60.70
2023-01-01T05:20:49.850Z,60.36
2023-01-01T05:23:17.847Z,60.49
2023-01-01T05:25:44.462Z,60.33
2023-01-01T05:28:12.408Z,59.89
2023-01-01T05:30:39.628Z,60.33
2023-01-01T05:33:06.267Z,60.77
2023-01-01T05:35:32.809Z,60.23
2023-01-01T05:38:00.304Z,60.10
2023-01-01T05:40:27.132Z,60.58
2023-01-01T05:42:53.729Z,60.93
2023-01-01T05:45:20.738Z,61.07
2023-01-01T05:47:47.441Z,61.06
2023-01-01T05:50:14.079Z,60.92
2023-01-01T05:52:40.660Z,60.70
2023-01-01T05:55:07.389Z,60.43
2023-01-01T05:57:34.041Z,60.55
2023-01-01T06:00:00.644Z,60.23
2023-01-01T06:02:30.079Z,60.06
2023-01-01T06:04:56.997Z,60.47
2023-01-01T06:07:23.518Z,60.28
2023-01-01T06:09:50.132Z,60.13
2023-01-01T06:12:16.671Z,60.15
2023-01-01T06:14:43.294Z,60.75
2023-01-01T06:17:09.834Z,60.50
2023-01-01T06:19:36.429Z,60.33
2023-01-01T06:22:03.007Z,60.64
2023-01-01T06:24:32.612Z,60.34
2023-01-01T06:27:03.667Z,60.42
2023-01-01T06:29:30.216Z,61.09
2023-01-01T06:31:56.821Z,61.15
2023-01-01T06:34:23.441Z,61.00
2023-01-01T06:36:50.103Z,60.85
2023-01-01T06:39:16.709Z,61.07
2023-01-01T06:41:43.336Z,61.60
2023-01-01T06:44:09.858Z,61.66
2023-01-01T06:46:37.091Z,61.96
2023-01-01T06:49:07.626Z,62.24
2023-01-01T06:51:37.624Z,61.88
2023-01-01T06:54:05.138Z,61.75
2023-01-01T06:56:32.222Z,61.27
2023-01-01T06:58:59.344Z,61.42
2023-01-01T07:01:27.247Z,61.08
2023-01-01T07:03:57.871Z,61.62
2023-01-01T07:06:25.789Z,61.50
2023-01-01T07:08:52.743Z,60.99
2023-01-01T07:11:19.580Z,61.21
2023-01-01T07:13:46.337Z,60.98
2023-01-01T07:16:13.835Z,61.40
2023-01-01T07:18:41.070Z,61.39
2023-01-01T07:21:26.663Z,61.28
2023-01-01T07:23:58.625Z,61.58
2023-01-01T07:26:25.818Z,61.90
2023-01-01T07:28:53.169Z,62.33
2023-01-01T07:31:19.962Z,63.17
2023-01-01T07:33:46.827Z,62.91
2023-01-01T07:36:13.420Z,62.89
2023-01-01T07:38:40.179Z,63.25
2023-01-01T07:41:07.039Z,63.51
2023-01-01T07:43:33.592Z,63.57
2023-01-01T07:46:00.591Z,63.51
2023-01-01T07:48:27.524Z,63.70
2023-01-01T07:50:54.201Z,63.27
2023-01-01T07:53:20.756Z,62.63
2023-01-01T07:55:47.465Z,62.47
2023-01-01T07:58:14.066Z,62.65
2023-01-01T08:00:40.952Z,63.36
2023-01-01T08:03:08.088Z,62.16
2023-01-01T08:05:35.864Z,61.82
2023-01-01T08:08:02.434Z,61.61
2023-01-01T08:10:29.027Z,62.67
2023-01-01T08:13:02.428Z,62.59
2023-01-01T08:15:29.033Z,61.96
2023-01-01T08:17:59.270Z,62.02
2023-01-01T08:20:26.718Z,62.40
2023-01-01T08:22:53.293Z,62.31
2023-01-01T08:25:19.995Z,74.98
2023-01-01T08:27:46.717Z,67.90
2023-01-01T08:30:14.386Z,65.15
2023-01-01T08:32:41.080Z,66.67
2023-01-01T08:35:08.230Z,65.02
2023-01-01T08:37:34.811Z,61.91
2023-01-01T08:40:01.408Z,62.28
2023-01-01T08:42:28.063Z,61.11
2023-01-01T08:44:54.554Z,59.11
2023-01-01T08:47:25.893Z,61.74
2023-01-01T08:49:52.881Z,59.93
2023-01-01T08:52:19.945Z,61.11
2023-01-01T08:54:46.524Z,59.34
2023-01-01T08:57:13.805Z,59.28
2023-01-01T08:59:40.457Z,60.02
2023-01-01T09:02:07.595Z,61.33
2023-01-01T09:04:34.333Z,58.73
2023-01-01T09:07:00.989Z,58.52
2023-01-01T09:09:31.566Z,58.10
2023-01-01T09:12:01.774Z,58.43
2023-01-01T09:14:28.310Z,58.30
2023-01-01T09:16:54.855Z,59.19
2023-01-01T09:19:21.480Z,58.05
2023-01-01T09:21:48.033Z,58.55
2023-01-01T09:24:14.663Z,57.79
2023-01-01T09:26:41.209Z,57.90
2023-01-01T09:29:07.806Z,57.76
2023-01-01T09:31:34.358Z,60.49
2023-01-01T09:34:00.966Z,58.99
2023-01-01T09:36:29.009Z,59.65
2023-01-01T09:38:56.818Z,57.77
2023-01-01T09:41:46.689Z,57.51
2023-01-01T09:44:32.047Z,56.85
2023-01-01T09:47:00.506Z,58.51
2023-01-01T09:49:44.645Z,56.51
2023-01-01T09:52:13.285Z,56.63
2023-01-01T09:54:40.328Z,56.63
2023-01-01T09:57:11.375Z,56.96
2023-01-01T09:59:40.469Z,55.86
2023-01-01T10:02:25.856Z,56.22
2023-01-01T10:05:08.977Z,55.59
2023-01-01T10:07:44.574Z,58.20
2023-01-01T10:10:18.053Z,55.48
2023-01-01T10:12:47.384Z,56.67
2023-01-01T10:15:20.439Z,56.68
2023-01-01T10:17:49.057Z,54.69
2023-01-01T10:20:18.625Z,55.02
2023-01-01T10:22:46.977Z,53.99
2023-01-01T10:25:17.754Z,54.38
2023-01-01T10:27:47.428Z,54.34
2023-01-01T10:30:18.720Z,53.71
2023-01-01T10:32:53.249Z,53.81
2023-01-01T10:35:26.857Z,53.94
2023-01-01T10:37:57.267Z,53.31
2023-01-01T10:40:24.461Z,53.63
2023-01-01T10:42:53.013Z,53.77
2023-01-01T10:45:28.368Z,53.96
2023-01-01T10:48:11.030Z,54.43
2023-01-01T10:50:49.170Z,54.33
2023-01-01T10:53:39.508Z,54.37
2023-01-01T10:56:09.264Z,54.10
2023-01-01T10:58:38.925Z,53.45
2023-01-01T11:01:06.960Z,53.52
2023-01-01T11:03:33.874Z,54.30
2023-01-01T11:06:19.263Z,54.21
2023-01-01T11:08:50.231Z,54.68
2023-01-01T11:11:21.171Z,58.18
2023-01-01T11:13:50.309Z,58.65
2023-01-01T11:16:18.900Z,56.55
2023-01-01T11:18:45.556Z,55.72
2023-01-01T11:21:19.214Z,55.09
2023-01-01T11:23:45.797Z,58.45
2023-01-01T11:26:12.338Z,59.23
2023-01-01T11:28:39.843Z,59.64
2023-01-01T11:31:17.332Z,59.59
2023-01-01T11:33:49.585Z,60.22
2023-01-01T11:36:21.919Z,61.18
2023-01-01T11:38:51.561Z,61.36
2023-01-01T11:41:18.198Z,63.90
2023-01-01T11:43:45.849Z,63.64
2023-01-01T11:46:16.882Z,64.06
2023-01-01T11:48:44.100Z,64.40
2023-01-01T11:51:27.645Z,64.33
2023-01-01T11:54:07.621Z,65.46
2023-01-01T11:56:34.189Z,63.26
2023-01-01T11:59:03.840Z,62.81
2023-01-01T12:01:39.616Z,63.36
2023-01-01T12:04:24.276Z,64.70
2023-01-01T12:07:09.535Z,64.50
2023-01-01T12:09:51.037Z,64.57
2023-01-01T12:12:20.409Z,64.38
2023-01-01T12:14:54.101Z,64.84
2023-01-01T12:17:47.185Z,65.46
2023-01-01T12:20:21.414Z,65.55
2023-01-01T12:22:48.665Z,65.78
2023-01-01T12:25:18.125Z,66.36
2023-01-01T12:27:59.924Z,66.85
2023-01-01T12:30:52.657Z,66.95
2023-01-01T12:33:19.444Z,67.14
2023-01-01T12:36:06.447Z,67.10
2023-01-01T12:38:33.116Z,67.85
2023-01-01T12:41:18.292Z,68.10
2023-01-01T12:43:53.285Z,68.38
2023-01-01T12:46:25.943Z,68.98
2023-01-01T12:49:01.388Z,69.40
2023-01-01T12:51:46.253Z,69.82
2023-01-01T12:54:31.508Z,70.17
2023-01-01T12:57:07.922Z,70.44
2023-01-01T12:59:37.180Z,70.79
2023-01-01T13:02:11.647Z,71.01
2023-01-01T13:04:38.772Z,71.31
2023-01-01T13:07:08.815Z,71.66
2023-01-01T13:09:37.838Z,71.35
2023-01-01T13:12:06.932Z,71.36
2023-01-01T13:14:43.984Z,71.43
2023-01-01T13:17:22.677Z,71.47
2023-01-01T13:19:57.884Z,71.24
2023-01-01T13:22:27.563Z,71.36
2023-01-01T13:25:03.110Z,71.29
2023-01-01T13:27:48.577Z,71.16
2023-01-01T13:30:33.622Z,71.14
2023-01-01T13:33:25.222Z,71.19
2023-01-01T13:36:07.696Z,71.59
2023-01-01T13:38:45.602Z,71.72
2023-01-01T13:41:31.082Z,71.95
2023-01-01T13:44:00.833Z,71.95
2023-01-01T13:46:37.922Z,71.77
2023-01-01T13:49:13.698Z,71.84
2023-01-01T13:52:06.459Z,71.64
2023-01-01T13:54:34.346Z,71.62
2023-01-01T13:57:04.517Z,72.04
2023-01-01T13:59:37.226Z,72.50
2023-01-01T14:02:15.994Z,72.56
2023-01-01T14:04:50.661Z,72.73
2023-01-01T14:07:48.976Z,72.15
2023-01-01T14:10:15.753Z,72.00
2023-01-01T14:12:42.313Z,71.71
2023-01-01T14:15:35.247Z,71.57
2023-01-01T14:18:04.006Z,71.71
2023-01-01T14:20:40.567Z,71.55
2023-01-01T14:23:15.661Z,71.64
2023-01-01T14:25:42.945Z,71.85
2023-01-01T14:28:29.453Z,72.08
2023-01-01T14:30:57.004Z,71.91
2023-01-01T14:33:25.027Z,72.32
2023-01-01T14:35:56.192Z,72.78
2023-01-01T14:38:28.765Z,72.53
2023-01-01T14:41:14.153Z,72.68
2023-01-01T14:43:42.099Z,72.61
2023-01-01T14:46:13.975Z,72.98
2023-01-01T14:48:43.601Z,72.94
2023-01-01T14:51:13.029Z,72.69
2023-01-01T14:53:41.712Z,72.61
2023-01-01T14:56:09.018Z,72.61
2023-01-01T14:58:36.441Z,72.77
2023-01-01T15:01:16.692Z,72.86
2023-01-01T15:03:54.975Z,72.49
2023-01-01T15:06:23.155Z,72.26
2023-01-01T15:08:51.133Z,72.61
2023-01-01T15:11:19.317Z,72.54
2023-01-01T15:13:55.021Z,72.54
2023-01-01T15:16:21.862Z,72.60
2023-01-01T15:18:50.709Z,72.18
2023-01-01T15:21:26.625Z,72.24
2023-01-01T15:24:23.913Z,72.40
2023-01-01T15:26:52.427Z,72.24
2023-01-01T15:29:33.025Z,72.10
2023-01-01T15:32:01.622Z,72.35
2023-01-01T15:34:32.645Z,72.26
2023-01-01T15:37:10.631Z,72.21
2023-01-01T15:39:50.975Z,72.18
2023-01-01T15:42:32.403Z,72.55
2023-01-01T15:45:14.146Z,72.49
2023-01-01T15:47:41.290Z,72.74
2023-01-01T15:50:11.782Z,72.70
2023-01-01T15:52:38.667Z,72.85
2023-01-01T15:55:05.520Z,73.04
2023-01-01T15:57:32.219Z,73.07
2023-01-01T15:59:58.819Z,73.44
2023-01-01T16:02:30.183Z,73.50
2023-01-01T16:04:57.175Z,73.58
2023-01-01T16:07:25.658Z,73.73
2023-01-01T16:09:57.396Z,73.88
2023-01-01T16:12:25.287Z,73.82
2023-01-01T16:14:51.910Z,74.20
2023-01-01T16:17:19.675Z,74.50
2023-01-01T16:19:47.802Z,74.40
2023-01-01T16:22:15.822Z,74.42
2023-01-01T16:24:42.934Z,74.75
2023-01-01T16:27:09.572Z,74.78
2023-01-01T16:29:36.316Z,75.12
2023-01-01T16:32:03.389Z,75.16
2023-01-01T16:34:29.923Z,75.00
2023-01-01T16:36:56.605Z,75.56
2023-01-01T16:39:23.261Z,75.55
2023-01-01T16:41:49.932Z,75.70
2023-01-01T16:44:16.766Z,76.11
2023-01-01T16:46:43.803Z,76.46
2023-01-01T16:49:10.403Z,76.34
2023-01-01T16:51:40.682Z,76.43
2023-01-01T16:54:10.098Z,76.49
2023-01-01T16:56:36.661Z,76.08
2023-01-01T16:59:03.863Z,75.61
2023-01-01T17:01:30.624Z,75.53
2023-01-01T17:03:57.332Z,75.48
2023-01-01T17:06:23.954Z,75.57
2023-01-01T17:08:50.602Z,74.15
2023-01-01T17:11:18.317Z,73.27
2023-01-01T17:13:47.102Z,73.92
2023-01-01T17:16:21.256Z,75.03
2023-01-01T17:21:39.475Z,76.38
2023-01-01T17:24:06.446Z,76.39
2023-01-01T17:26:33.080Z,75.84
2023-01-01T17:29:01.473Z,73.85
2023-01-01T17:31:29.151Z,72.87
2023-01-01T17:33:56.599Z,72.65
2023-01-01T17:36:23.713Z,71.86
2023-01-01T17:38:50.295Z,72.40
2023-01-01T17:41:17.175Z,72.08
2023-01-01T17:43:45.760Z,72.02
2023-01-01T17:46:12.319Z,71.62
2023-01-01T17:48:39.324Z,71.57
2023-01-01T17:51:06.215Z,71.51
2023-01-01T17:53:32.801Z,71.47
2023-01-01T17:55:59.372Z,71.48
2023-01-01T17:58:29.514Z,71.88
2023-01-01T18:01:08.247Z,72.21
2023-01-01T18:03:34.951Z,72.10
2023-01-01T18:06:01.532Z,72.17
2023-01-01T18:08:29.135Z,72.29
2023-01-01T18:10:55.926Z,72.72
2023-01-01T18:13:22.639Z,72.84
2023-01-01T18:15:49.387Z,73.15
2023-01-01T18:18:15.961Z,72.88
2023-01-01T18:20:42.633Z,72.77
2023-01-01T18:23:09.277Z,72.75
2023-01-01T18:25:36.071Z,72.54
2023-01-01T18:28:02.638Z,72.50
2023-01-01T18:30:29.249Z,72.58
2023-01-01T18:32:55.871Z,72.44
2023-01-01T18:35:22.478Z,72.42
2023-01-01T18:37:49.113Z,72.45
2023-01-01T18:40:16.946Z,72.67
2023-01-01T18:42:49.352Z,73.00
2023-01-01T18:45:22.859Z,72.80
2023-01-01T18:47:50.030Z,73.21
2023-01-01T18:50:16.674Z,73.35
2023-01-01T18:52:43.468Z,73.84
2023-01-01T18:55:10.209Z,73.93
2023-01-01T18:57:37.321Z,74.30
2023-01-01T19:00:09.746Z,74.33
2023-01-01T19:02:43.208Z,73.97
2023-01-01T19:05:28.851Z,74.14
2023-01-01T19:07:57.929Z,73.98
2023-01-01T19:10:24.972Z,73.99
2023-01-01T19:12:54.969Z,73.72
2023-01-01T19:15:21.768Z,73.63
2023-01-01T19:17:48.344Z,73.82
2023-01-01T19:20:20.778Z,74.22
2023-01-01T19:22:48.248Z,74.46
2023-01-01T19:25:41.081Z,74.26
2023-01-01T19:28:13.712Z,74.72
2023-01-01T19:30:40.344Z,74.56
2023-01-01T19:33:07.195Z,74.89
2023-01-01T19:35:33.806Z,75.06
2023-01-01T19:38:00.446Z,75.27
2023-01-01T19:40:27.125Z,75.76
2023-01-01T19:42:54.591Z,76.06
2023-01-01T19:45:21.453Z,76.17
2023-01-01T19:47:48.222Z,75.52
2023-01-01T19:50:15.717Z,76.03
2023-01-01T19:52:42.295Z,75.99
2023-01-01T19:55:09.113Z,76.49
2023-01-01T19:57:35.779Z,76.75
2023-01-01T20:00:02.367Z,76.84
2023-01-01T20:02:47.601Z,76.31
2023-01-01T20:05:15.074Z,76.07
2023-01-01T20:07:41.628Z,75.57
2023-01-01T20:10:08.440Z,75.61
2023-01-01T20:12:35.027Z,75.70
2023-01-01T20:15:01.641Z,75.75
2023-01-01T20:17:28.141Z,76.16
2023-01-01T20:19:54.883Z,76.18
2023-01-01T20:22:22.079Z,75.38
2023-01-01T20:24:48.766Z,74.83
2023-01-01T20:27:24.287Z,74.28
2023-01-01T20:29:51.421Z,74.27
2023-01-01T20:32:18.136Z,73.83
2023-01-01T20:34:44.980Z,73.67
2023-01-01T20:37:30.060Z,73.60
2023-01-01T20:39:56.762Z,73.14
2023-01-01T20:42:23.419Z,72.96
2023-01-01T20:44:50.045Z,72.36
2023-01-01T20:47:16.650Z,71.54
2023-01-01T20:49:43.353Z,72.20
2023-01-01T20:52:09.903Z,72.05
2023-01-01T20:54:36.546Z,71.89
2023-01-01T20:57:03.212Z,72.14
2023-01-01T20:59:38.536Z,71.93
2023-01-01T21:02:07.509Z,71.85
2023-01-01T21:04:38.701Z,72.05
2023-01-01T21:07:06.834Z,72.10
2023-01-01T21:09:33.441Z,72.37
2023-01-01T21:12:00.335Z,72.22
2023-01-01T21:14:27.002Z,72.31
2023-01-01T21:16:53.712Z,72.13
2023-01-01T21:19:26.608Z,71.89
2023-01-01T21:21:55.845Z,71.86
2023-01-01T21:24:32.283Z,71.69
2023-01-01T21:27:10.500Z,71.80
2023-01-01T21:29:40.969Z,71.82
2023-01-01T21:32:22.649Z,72.12
2023-01-01T21:34:50.554Z,71.83
2023-01-01T21:37:46.087Z,71.59
2023-01-01T21:40:22.093Z,71.68
2023-01-01T21:42:48.978Z,71.55
2023-01-01T21:45:23.180Z,71.42
2023-01-01T21:47:49.903Z,71.42
2023-01-01T21:50:27.631Z,71.11
2023-01-01T21:53:00.162Z,70.72
2023-01-01T21:55:47.112Z,70.17
2023-01-01T21:58:35.839Z,69.96
2023-01-01T22:01:21.473Z,69.81
2023-01-01T22:03:58.236Z,69.91
2023-01-01T22:06:26.259Z,69.29
2023-01-01T22:08:52.793Z,69.13
2023-01-01T22:11:28.766Z,69.12
2023-01-01T22:13:55.720Z,69.25
2023-01-01T22:16:27.696Z,69.47
2023-01-01T22:18:54.353Z,69.36
2023-01-01T22:21:24.656Z,69.56
2023-01-01T22:23:55.019Z,69.52
2023-01-01T22:26:23.461Z,69.62
2023-01-01T22:28:51.490Z,69.38
2023-01-01T22:31:22.055Z,69.13
2023-01-01T22:33:49.370Z,69.15
2023-01-01T22:36:18.051Z,69.17
2023-01-01T22:38:44.949Z,69.18
2023-01-01T22:41:12.751Z,68.92
2023-01-01T22:43:41.295Z,68.84
2023-01-01T22:46:30.992Z,68.96
2023-01-01T22:48:59.048Z,69.10
2023-01-01T22:51:27.388Z,68.38
2023-01-01T22:53:53.971Z,68.26
2023-01-01T22:56:21.525Z,68.00
2023-01-01T22:58:53.138Z,68.09
2023-01-01T23:01:23.520Z,67.84
2023-01-01T23:03:50.342Z,67.94
2023-01-01T23:06:17.538Z,67.68
2023-01-01T23:08:44.155Z,68.12
2023-01-01T23:11:11.214Z,67.67
2023-01-01T23:13:56.201Z,67.50
2023-01-01T23:16:22.969Z,67.10
2023-01-01T23:18:49.546Z,67.41
2023-01-01T23:21:26.514Z,67.04
2023-01-01T23:23:55.914Z,66.94
2023-01-01T23:26:22.963Z,66.63
2023-01-01T23:28:49.767Z,66.87
2023-01-01T23:31:24.302Z,67.15
2023-01-01T23:33:52.154Z,66.01
2023-01-01T23:36:18.720Z,65.64
2023-01-01T23:38:45.607Z,65.12
2023-01-01T23:41:12.200Z,65.45
2023-01-01T23:43:43.276Z,65.67
2023-01-01T23:46:11.388Z,65.75
2023-01-01T23:48:38.028Z,65.89
2023-01-01T23:51:05.217Z,65.74
2023-01-01T23:53:31.870Z,65.86
2023-01-01T23:55:58.552Z,66.01
2023-01-01T23:58:25.074Z,67.17
